createdAt,value
2023-04-13T00:01:01.648Z,5.50
2023-04-13T00:02:04.077Z,5.35
2023-04-13T00:03:08.626Z,5.28
2023-04-13T00:04:11.311Z,5.70
2023-04-13T00:05:13.715Z,6.07
2023-04-13T00:06:16.287Z,6.03
2023-04-13T00:07:19.113Z,5.13
2023-04-13T00:08:23.211Z,4.90
2023-04-13T00:09:26.159Z,5.78
2023-04-13T00:10:28.629Z,5.45
2023-04-13T00:11:32.028Z,5.53
2023-04-13T00:12:38.631Z,5.68
2023-04-13T00:13:42.881Z,6.13
2023-04-13T00:14:45.284Z,5.30
2023-04-13T00:15:47.698Z,5.57
2023-04-13T00:16:51.780Z,5.25
2023-04-13T00:17:54.184Z,4.75
2023-04-13T00:18:56.516Z,4.85
2023-04-13T00:19:59.243Z,5.05
2023-04-13T00:21:01.508Z,4.70
2023-04-13T00:22:04.548Z,4.90
2023-04-13T00:23:07.517Z,4.07
2023-04-13T00:24:09.857Z,4.00
2023-04-13T00:25:14.472Z,4.10
2023-04-13T00:26:20.632Z,3.83
2023-04-13T00:27:26.540Z,3.50
2023-04-13T00:28:29.733Z,4.13
2023-04-13T00:29:34.469Z,3.63
2023-04-13T00:30:36.883Z,3.90
2023-04-13T00:31:40.390Z,3.80
2023-04-13T00:32:44.172Z,4.30
2023-04-13T00:33:46.590Z,3.80
2023-04-13T00:34:48.972Z,3.22
2023-04-13T00:35:51.785Z,3.75
2023-04-13T00:36:54.517Z,3.72
2023-04-13T00:37:58.784Z,3.05
2023-04-13T00:39:01.172Z,3.83
2023-04-13T00:40:06.200Z,3.30
2023-04-13T00:41:08.510Z,3.70
2023-04-13T00:42:11.069Z,3.95
2023-04-13T00:43:13.452Z,3.42
2023-04-13T00:44:16.094Z,3.70
2023-04-13T00:45:19.358Z,3.85
2023-04-13T00:46:25.173Z,3.30
2023-04-13T00:47:34.014Z,3.17
2023-04-13T00:48:36.557Z,3.15
2023-04-13T00:49:40.029Z,3.20
2023-04-13T00:50:42.382Z,3.80
2023-04-13T00:51:45.493Z,3.70
2023-04-13T00:52:48.921Z,3.70
2023-04-13T00:53:51.359Z,3.90
2023-04-13T00:54:56.495Z,4.18
2023-04-13T00:55:58.819Z,4.90
2023-04-13T00:57:02.105Z,4.50
2023-04-13T00:58:04.417Z,4.93
2023-04-13T00:59:07.654Z,4.57
2023-04-13T01:00:10.513Z,5.30
2023-04-13T01:01:12.892Z,4.43
2023-04-13T01:02:23.192Z,4.90
2023-04-13T01:03:27.423Z,5.40
2023-04-13T01:04:30.626Z,6.20
2023-04-13T01:05:51.954Z,6.35
2023-04-13T01:07:07.134Z,6.47
2023-04-13T01:08:32.087Z,6.68
2023-04-13T01:10:04.034Z,7.00
2023-04-13T01:11:32.885Z,7.40
2023-04-13T01:12:49.270Z,6.65
2023-04-13T01:14:01.040Z,6.80
2023-04-13T01:15:09.347Z,7.55
2023-04-13T01:16:20.403Z,7.78
2023-04-13T01:17:27.643Z,7.35
2023-04-13T01:18:32.124Z,7.53
2023-04-13T01:19:51.630Z,8.68
2023-04-13T01:20:55.127Z,7.32
2023-04-13T01:21:58.083Z,8.32
2023-04-13T01:23:04.385Z,9.70
2023-04-13T01:24:24.533Z,9.65
2023-04-13T01:25:38.203Z,8.43
2023-04-13T01:27:10.033Z,8.50
2023-04-13T01:28:18.620Z,9.18
2023-04-13T01:29:21.578Z,7.78
2023-04-13T01:30:28.405Z,8.00
2023-04-13T01:31:33.272Z,8.27
2023-04-13T01:32:35.640Z,8.82
2023-04-13T01:33:41.369Z,8.52
2023-04-13T01:34:45.642Z,8.82
2023-04-13T01:35:49.696Z,8.00
2023-04-13T01:36:53.730Z,8.10
2023-04-13T01:37:57.310Z,7.65
2023-04-13T01:39:00.990Z,8.20
2023-04-13T01:40:10.263Z,8.00
2023-04-13T01:41:18.571Z,7.45
2023-04-13T01:42:21.062Z,8.48
2023-04-13T01:43:27.675Z,7.47
2023-04-13T01:44:39.092Z,7.32
2023-04-13T01:46:01.258Z,7.78
2023-04-13T01:47:16.623Z,8.20
2023-04-13T01:48:45.489Z,9.05
2023-04-13T01:50:26.805Z,8.30
2023-04-13T01:51:36.417Z,8.50
2023-04-13T01:52:43.442Z,8.20
2023-04-13T01:54:14.858Z,8.60
2023-04-13T01:55:23.169Z,8.20
2023-04-13T01:56:29.015Z,7.90
2023-04-13T01:57:40.140Z,8.13
2023-04-13T01:58:49.762Z,8.10
2023-04-13T01:59:52.027Z,7.10
2023-04-13T02:00:56.171Z,9.07
2023-04-13T02:01:59.536Z,8.32
2023-04-13T02:03:06.560Z,7.40
2023-04-13T02:04:09.648Z,7.18
2023-04-13T02:05:14.233Z,7.75
2023-04-13T02:06:16.535Z,7.30
2023-04-13T02:07:19.459Z,7.38
2023-04-13T02:08:23.906Z,7.47
2023-04-13T02:09:28.283Z,7.60
2023-04-13T02:10:31.451Z,7.47
2023-04-13T02:11:36.731Z,6.88
2023-04-13T02:12:40.645Z,7.25
2023-04-13T02:13:43.552Z,6.75
2023-04-13T02:14:49.587Z,7.35
2023-04-13T02:15:52.677Z,7.10
2023-04-13T02:16:54.985Z,6.40
2023-04-13T02:17:58.118Z,6.20
2023-04-13T02:19:00.518Z,6.18
2023-04-13T02:20:11.166Z,6.00
2023-04-13T02:21:13.933Z,7.00
2023-04-13T02:22:16.404Z,5.70
2023-04-13T02:23:19.087Z,6.25
2023-04-13T02:24:21.749Z,6.07
2023-04-13T02:25:24.139Z,6.28
2023-04-13T02:26:26.459Z,6.60
2023-04-13T02:27:31.743Z,6.40
2023-04-13T02:28:34.548Z,5.63
2023-04-13T02:29:36.941Z,6.22
2023-04-13T02:30:39.170Z,5.45
2023-04-13T02:31:44.275Z,5.65
2023-04-13T02:32:49.978Z,5.10
2023-04-13T02:33:52.681Z,5.10
2023-04-13T02:34:54.941Z,5.40
2023-04-13T02:35:57.968Z,6.03
2023-04-13T02:37:00.982Z,4.45
2023-04-13T02:38:04.313Z,4.85
2023-04-13T02:39:06.904Z,4.18
2023-04-13T02:40:10.456Z,3.85
2023-04-13T02:41:12.807Z,3.80
2023-04-13T02:42:15.356Z,4.32
2023-04-13T02:43:17.722Z,3.80
2023-04-13T02:44:19.987Z,3.63
2023-04-13T02:45:28.720Z,2.78
2023-04-13T02:46:32.830Z,3.53
2023-04-13T02:47:40.907Z,3.67
2023-04-13T02:48:43.433Z,3.25
2023-04-13T02:49:46.937Z,3.50
2023-04-13T02:50:58.509Z,3.08
2023-04-13T02:52:05.738Z,3.08
2023-04-13T02:53:17.185Z,3.15
2023-04-13T02:54:22.126Z,3.60
2023-04-13T02:55:24.786Z,3.17
2023-04-13T02:56:35.867Z,3.72
2023-04-13T02:57:39.192Z,3.40
2023-04-13T02:58:41.855Z,3.88
2023-04-13T02:59:50.788Z,4.45
2023-04-13T03:00:54.119Z,3.55
2023-04-13T03:01:59.991Z,4.18
2023-04-13T03:03:06.826Z,4.20
2023-04-13T03:04:14.975Z,4.22
2023-04-13T03:05:17.566Z,3.20
2023-04-13T03:06:22.894Z,3.90
2023-04-13T03:07:29.261Z,4.15
2023-04-13T03:08:31.793Z,4.65
2023-04-13T03:09:44.798Z,4.20
2023-04-13T03:10:47.266Z,4.90
2023-04-13T03:11:49.528Z,5.05
2023-04-13T03:12:56.663Z,4.75
2023-04-13T03:14:01.652Z,4.10
2023-04-13T03:15:07.966Z,4.30
2023-04-13T03:16:11.432Z,4.88
2023-04-13T03:17:14.801Z,4.40
2023-04-13T03:18:17.213Z,3.90
2023-04-13T03:19:19.470Z,3.75
2023-04-13T03:20:23.773Z,3.95
2023-04-13T03:21:31.397Z,3.75
2023-04-13T03:22:41.309Z,3.88
2023-04-13T03:23:44.179Z,4.10
2023-04-13T03:24:47.933Z,4.10
2023-04-13T03:25:58.114Z,4.70
2023-04-13T03:27:00.511Z,5.07
2023-04-13T03:28:11.550Z,5.00
2023-04-13T03:29:17.664Z,5.50
2023-04-13T03:30:21.662Z,4.57
2023-04-13T03:31:30.898Z,4.40
2023-04-13T03:32:33.296Z,5.18
2023-04-13T03:33:37.046Z,4.53
2023-04-13T03:34:44.564Z,5.53
2023-04-13T03:35:48.696Z,4.32
2023-04-13T03:36:58.859Z,5.35
2023-04-13T03:38:01.175Z,4.38
2023-04-13T03:39:14.686Z,4.03
2023-04-13T03:40:18.604Z,4.30
2023-04-13T03:41:25.907Z,4.68
2023-04-13T03:42:28.329Z,4.10
2023-04-13T03:43:33.977Z,4.40
2023-04-13T03:44:42.481Z,5.03
2023-04-13T03:45:44.840Z,4.30
2023-04-13T03:46:49.982Z,4.25
2023-04-13T03:47:59.736Z,3.97
2023-04-13T03:49:04.422Z,4.47
2023-04-13T03:50:07.382Z,4.40
2023-04-13T03:51:10.783Z,3.47
2023-04-13T03:52:27.721Z,3.40
2023-04-13T03:53:38.044Z,4.50
2023-04-13T03:54:40.887Z,4.70
2023-04-13T03:55:43.327Z,3.88
2023-04-13T03:56:45.876Z,5.03
2023-04-13T03:57:49.297Z,4.00
2023-04-13T03:58:56.000Z,4.22
2023-04-13T04:00:01.252Z,4.65
2023-04-13T04:01:16.674Z,4.20
2023-04-13T04:02:23.038Z,4.10
2023-04-13T04:03:25.920Z,4.18
2023-04-13T04:04:42.138Z,4.50
2023-04-13T04:05:45.167Z,4.50
2023-04-13T04:06:47.420Z,4.22
2023-04-13T04:07:52.398Z,4.18
2023-04-13T04:08:54.907Z,3.90
2023-04-13T04:10:04.965Z,3.83
2023-04-13T04:11:08.049Z,4.00
2023-04-13T04:12:11.838Z,4.28
2023-04-13T04:13:17.842Z,4.05
2023-04-13T04:14:24.313Z,4.13
2023-04-13T04:15:33.543Z,3.97
2023-04-13T04:16:39.799Z,4.53
2023-04-13T04:17:51.313Z,4.45
2023-04-13T04:18:54.165Z,3.97
2023-04-13T04:19:56.834Z,4.47
2023-04-13T04:21:04.558Z,5.05
2023-04-13T04:22:07.335Z,4.30
2023-04-13T04:23:15.421Z,3.90
2023-04-13T04:24:29.856Z,3.85
2023-04-13T04:25:34.557Z,3.90
2023-04-13T04:26:38.176Z,3.13
2023-04-13T04:27:40.787Z,3.60
2023-04-13T04:28:44.149Z,4.40
2023-04-13T04:29:52.905Z,3.90
2023-04-13T04:31:05.750Z,3.67
2023-04-13T04:32:10.816Z,3.55
2023-04-13T04:33:14.551Z,4.40
2023-04-13T04:34:16.942Z,3.42
2023-04-13T04:35:26.334Z,3.97
2023-04-13T04:36:29.415Z,3.70
2023-04-13T04:37:37.688Z,4.38
2023-04-13T04:38:47.731Z,4.53
2023-04-13T04:39:49.958Z,4.30
2023-04-13T04:40:57.572Z,4.00
2023-04-13T04:42:03.224Z,3.33
2023-04-13T04:43:06.659Z,4.80
2023-04-13T04:44:18.901Z,4.13
2023-04-13T04:45:21.401Z,4.20
2023-04-13T04:46:27.452Z,4.97
2023-04-13T04:47:37.894Z,4.30
2023-04-13T04:48:47.631Z,5.50
2023-04-13T04:49:50.974Z,5.57
2023-04-13T04:50:56.161Z,4.55
2023-04-13T04:52:02.003Z,4.03
2023-04-13T04:53:07.036Z,5.40
2023-04-13T04:54:10.553Z,6.80
2023-04-13T04:55:12.832Z,6.30
2023-04-13T04:56:16.740Z,7.20
2023-04-13T04:57:23.487Z,7.63
2023-04-13T04:58:25.924Z,8.00
2023-04-13T04:59:31.041Z,8.10
2023-04-13T05:00:38.477Z,10.07
2023-04-13T05:01:44.803Z,8.02
2023-04-13T05:02:50.909Z,8.73
2023-04-13T05:03:53.747Z,9.68
2023-04-13T05:05:02.878Z,7.97
2023-04-13T05:06:06.306Z,8.10
2023-04-13T05:07:10.671Z,7.65
2023-04-13T05:08:15.309Z,7.13
2023-04-13T05:09:21.173Z,6.75
2023-04-13T05:10:29.632Z,6.55
2023-04-13T05:11:33.812Z,6.70
2023-04-13T05:12:38.743Z,6.13
2023-04-13T05:13:41.139Z,6.10
2023-04-13T05:14:50.991Z,6.18
2023-04-13T05:15:54.206Z,8.15
2023-04-13T05:16:56.633Z,6.68
2023-04-13T05:18:06.090Z,8.07
2023-04-13T05:19:09.622Z,6.47
2023-04-13T05:20:37.949Z,6.60
2023-04-13T05:21:41.361Z,7.38
2023-04-13T05:22:43.961Z,8.20
2023-04-13T05:23:48.180Z,7.25
2023-04-13T05:24:50.847Z,8.15
2023-04-13T05:25:54.191Z,7.13
2023-04-13T05:26:57.382Z,8.27
2023-04-13T05:28:00.670Z,7.10
2023-04-13T05:29:05.379Z,6.15
2023-04-13T05:30:12.119Z,7.10
2023-04-13T05:31:16.178Z,6.10
2023-04-13T05:32:20.995Z,6.90
2023-04-13T05:33:25.254Z,6.13
2023-04-13T05:34:32.679Z,5.50
2023-04-13T05:35:48.133Z,6.13
2023-04-13T05:36:50.994Z,6.22
2023-04-13T05:37:54.639Z,5.43
2023-04-13T05:39:02.701Z,5.80
2023-04-13T05:40:15.125Z,5.60
2023-04-13T05:41:17.863Z,6.40
2023-04-13T05:42:20.597Z,5.35
2023-04-13T05:43:23.952Z,4.88
2023-04-13T05:44:28.006Z,4.70
2023-04-13T05:45:30.703Z,4.55
2023-04-13T05:46:43.145Z,4.55
2023-04-13T05:47:46.150Z,4.32
2023-04-13T05:48:50.193Z,4.38
2023-04-13T05:49:52.751Z,4.10
2023-04-13T05:50:58.643Z,3.65
2023-04-13T05:52:03.977Z,3.65
2023-04-13T05:53:15.089Z,3.80
2023-04-13T05:54:22.132Z,3.67
2023-04-13T05:55:26.445Z,3.65
2023-04-13T05:56:34.823Z,3.72
2023-04-13T05:57:37.155Z,3.92
2023-04-13T05:58:44.510Z,3.95
2023-04-13T05:59:53.560Z,3.50
2023-04-13T06:01:01.725Z,4.05
2023-04-13T06:02:07.116Z,3.80
2023-04-13T06:03:09.606Z,3.35
2023-04-13T06:04:12.996Z,3.00
2023-04-13T06:05:16.665Z,3.60
2023-04-13T06:06:21.237Z,3.08
2023-04-13T06:07:23.685Z,3.03
2023-04-13T06:08:32.512Z,3.22
2023-04-13T06:09:35.449Z,4.30
2023-04-13T06:10:37.896Z,3.35
2023-04-13T06:11:40.579Z,3.53
2023-04-13T06:12:43.455Z,3.30
2023-04-13T06:13:45.964Z,3.28
2023-04-13T06:14:48.886Z,3.85
2023-04-13T06:15:51.127Z,3.25
2023-04-13T06:16:53.584Z,3.47
2023-04-13T06:17:56.148Z,3.38
2023-04-13T06:19:00.086Z,3.10
2023-04-13T06:20:07.155Z,3.33
2023-04-13T06:21:10.062Z,3.55
2023-04-13T06:22:12.446Z,3.38
2023-04-13T06:23:16.498Z,3.85
2023-04-13T06:24:18.742Z,3.55
2023-04-13T06:25:21.543Z,4.25
2023-04-13T06:26:25.426Z,3.72
2023-04-13T06:27:33.723Z,2.67
2023-04-13T06:28:37.198Z,4.63
2023-04-13T06:29:40.108Z,3.10
2023-04-13T06:30:45.581Z,2.95
2023-04-13T06:31:49.951Z,3.03
2023-04-13T06:32:54.105Z,3.17
2023-04-13T06:33:58.965Z,3.03
2023-04-13T06:35:06.204Z,2.35
2023-04-13T06:36:15.702Z,3.05
2023-04-13T06:37:19.689Z,2.72
2023-04-13T06:38:25.544Z,2.80
2023-04-13T06:39:37.591Z,2.67
2023-04-13T06:40:40.835Z,2.70
2023-04-13T06:41:44.701Z,2.97
2023-04-13T06:42:51.341Z,2.75
2023-04-13T06:44:07.908Z,3.10
2023-04-13T06:45:17.966Z,2.70
2023-04-13T06:46:20.637Z,2.60
2023-04-13T06:47:25.632Z,3.30
2023-04-13T06:48:30.792Z,2.03
2023-04-13T06:49:36.390Z,2.70
2023-04-13T06:50:39.847Z,2.67
2023-04-13T06:51:42.760Z,3.08
2023-04-13T06:52:47.054Z,2.80
2023-04-13T06:53:51.518Z,2.80
2023-04-13T06:54:54.509Z,2.90
2023-04-13T06:56:09.610Z,2.55
2023-04-13T06:57:13.464Z,2.50
2023-04-13T06:58:17.093Z,2.45
2023-04-13T06:59:20.039Z,2.15
2023-04-13T07:00:29.491Z,2.45
2023-04-13T07:01:35.200Z,2.60
2023-04-13T07:02:37.733Z,3.05
2023-04-13T07:03:40.896Z,2.60
2023-04-13T07:04:43.615Z,2.35
2023-04-13T07:05:46.322Z,2.15
2023-04-13T07:06:51.876Z,2.00
2023-04-13T07:07:54.430Z,2.28
2023-04-13T07:08:57.894Z,2.25
2023-04-13T07:10:00.855Z,1.92
2023-04-13T07:11:04.620Z,2.03
2023-04-13T07:12:11.898Z,2.45
2023-04-13T07:13:14.224Z,2.40
2023-04-13T07:14:16.572Z,2.63
2023-04-13T07:15:19.004Z,2.30
2023-04-13T07:16:21.433Z,2.70
2023-04-13T07:17:24.067Z,2.88
2023-04-13T07:18:26.400Z,2.35
2023-04-13T07:19:33.836Z,2.05
2023-04-13T07:20:36.502Z,2.38
2023-04-13T07:21:39.770Z,3.15
2023-04-13T07:22:42.119Z,2.40
2023-04-13T07:23:45.518Z,2.40
2023-04-13T07:24:48.213Z,2.38
2023-04-13T07:25:54.117Z,2.95
2023-04-13T07:27:00.143Z,2.50
2023-04-13T07:28:03.076Z,2.53
2023-04-13T07:29:05.576Z,2.40
2023-04-13T07:30:11.951Z,3.08
2023-04-13T07:31:18.289Z,2.65
2023-04-13T07:32:30.234Z,2.08
2023-04-13T07:33:33.185Z,1.90
2023-04-13T07:34:36.576Z,2.17
2023-04-13T07:35:39.662Z,1.88
2023-04-13T07:36:43.174Z,2.10
2023-04-13T07:37:52.224Z,2.08
2023-04-13T07:38:56.370Z,2.28
2023-04-13T07:39:59.224Z,2.20
2023-04-13T07:41:01.603Z,2.40
2023-04-13T07:42:07.739Z,2.15
2023-04-13T07:43:20.720Z,1.80
2023-04-13T07:44:23.441Z,1.92
2023-04-13T07:45:26.212Z,2.00
2023-04-13T07:46:28.576Z,2.30
2023-04-13T07:47:31.505Z,1.98
2023-04-13T07:48:42.139Z,2.10
2023-04-13T07:49:55.664Z,1.73
2023-04-13T07:50:58.739Z,2.25
2023-04-13T07:52:01.279Z,1.70
2023-04-13T07:53:08.117Z,1.88
2023-04-13T07:54:10.639Z,1.80
2023-04-13T07:55:12.911Z,1.48
2023-04-13T07:56:21.686Z,1.77
2023-04-13T07:57:26.458Z,1.30
2023-04-13T07:58:34.644Z,1.73
2023-04-13T07:59:37.144Z,1.60
2023-04-13T08:00:39.477Z,2.15
2023-04-13T08:01:42.788Z,1.98
2023-04-13T08:02:45.263Z,2.50
2023-04-13T08:03:52.557Z,2.03
2023-04-13T08:04:59.073Z,1.70
2023-04-13T08:06:08.978Z,1.65
2023-04-13T08:07:11.344Z,1.73
2023-04-13T08:08:13.667Z,1.60
2023-04-13T08:09:16.996Z,1.60
2023-04-13T08:10:19.460Z,1.80
2023-04-13T08:11:21.809Z,1.55
2023-04-13T08:12:29.900Z,1.30
2023-04-13T08:13:32.163Z,1.50
2023-04-13T08:14:34.976Z,1.70
2023-04-13T08:15:37.217Z,1.50
2023-04-13T08:16:40.191Z,1.58
2023-04-13T08:17:45.021Z,1.45
2023-04-13T08:18:47.580Z,1.40
2023-04-13T08:19:50.141Z,1.20
2023-04-13T08:20:55.132Z,1.40
2023-04-13T08:21:59.534Z,1.30
2023-04-13T08:23:01.862Z,1.20
2023-04-13T08:24:04.508Z,1.50
2023-04-13T08:25:07.139Z,1.00
2023-04-13T08:26:18.212Z,1.52
2023-04-13T08:27:20.565Z,1.10
2023-04-13T08:28:23.462Z,1.10
2023-04-13T08:29:26.416Z,1.45
2023-04-13T08:30:33.196Z,1.58
2023-04-13T08:31:38.495Z,1.23
2023-04-13T08:32:41.671Z,1.20
2023-04-13T08:33:44.342Z,1.60
2023-04-13T08:34:46.651Z,1.33
2023-04-13T08:35:52.057Z,1.50
2023-04-13T08:36:55.239Z,1.70
2023-04-13T08:38:02.740Z,1.70
2023-04-13T08:39:09.530Z,2.08
2023-04-13T08:40:13.624Z,1.70
2023-04-13T08:41:19.353Z,1.40
2023-04-13T08:42:27.018Z,1.55
2023-04-13T08:43:29.380Z,1.20
2023-04-13T08:44:33.096Z,1.40
2023-04-13T08:45:36.699Z,1.77
2023-04-13T08:46:41.266Z,1.92
2023-04-13T08:47:44.002Z,1.50
2023-04-13T08:48:53.893Z,1.50
2023-04-13T08:50:00.436Z,1.35
2023-04-13T08:51:14.758Z,1.45
2023-04-13T08:52:17.791Z,1.50
2023-04-13T08:53:23.861Z,1.40
2023-04-13T08:54:28.501Z,2.25
2023-04-13T08:55:32.377Z,1.38
2023-04-13T08:56:45.449Z,1.50
2023-04-13T08:57:56.808Z,1.52
2023-04-13T08:59:05.165Z,1.10
2023-04-13T09:00:16.432Z,1.15
2023-04-13T09:01:20.892Z,1.40
2023-04-13T09:02:26.023Z,1.30
2023-04-13T09:03:36.737Z,1.30
2023-04-13T09:04:43.987Z,1.13
2023-04-13T09:05:55.433Z,1.77
2023-04-13T09:06:59.971Z,1.15
2023-04-13T09:08:04.955Z,1.00
2023-04-13T09:09:10.849Z,1.40
2023-04-13T09:10:16.509Z,1.05
2023-04-13T09:11:22.717Z,0.82
2023-04-13T09:12:31.144Z,1.20
2023-04-13T09:13:34.325Z,1.23
2023-04-13T09:14:38.895Z,1.42
2023-04-13T09:15:42.811Z,1.55
2023-04-13T09:16:56.150Z,1.35
2023-04-13T09:18:11.356Z,1.10
2023-04-13T09:19:33.609Z,1.90
2023-04-13T09:20:39.678Z,1.40
2023-04-13T09:21:44.819Z,1.85
2023-04-13T09:22:48.090Z,1.42
2023-04-13T09:23:58.028Z,1.40
2023-04-13T09:25:00.310Z,1.40
2023-04-13T09:26:07.437Z,1.48
2023-04-13T09:27:23.590Z,1.30
2023-04-13T09:28:26.631Z,1.65
2023-04-13T09:29:29.211Z,1.40
2023-04-13T09:30:31.536Z,1.20
2023-04-13T09:31:34.985Z,1.13
2023-04-13T09:32:37.644Z,1.60
2023-04-13T09:33:48.714Z,1.20
2023-04-13T09:35:05.090Z,1.10
2023-04-13T09:36:11.581Z,1.30
2023-04-13T09:37:14.162Z,1.38
2023-04-13T09:38:16.531Z,1.20
2023-04-13T09:39:28.308Z,1.40
2023-04-13T09:40:32.365Z,1.40
2023-04-13T09:41:36.671Z,1.60
2023-04-13T09:42:41.365Z,1.50
2023-04-13T09:43:43.682Z,1.20
2023-04-13T09:44:58.776Z,1.10
2023-04-13T09:46:01.785Z,1.42
2023-04-13T09:47:06.276Z,1.10
2023-04-13T09:48:22.072Z,1.00
2023-04-13T09:49:25.600Z,1.35
2023-04-13T09:50:28.481Z,1.77
2023-04-13T09:51:41.357Z,1.40
2023-04-13T09:52:45.214Z,1.73
2023-04-13T09:53:48.290Z,1.55
2023-04-13T09:54:55.493Z,1.45
2023-04-13T09:56:00.855Z,1.55
2023-04-13T09:57:05.088Z,1.30
2023-04-13T09:58:17.631Z,1.13
2023-04-13T09:59:22.855Z,1.35
2023-04-13T10:00:25.460Z,1.70
2023-04-13T10:01:28.890Z,1.30
2023-04-13T10:02:31.888Z,1.27
2023-04-13T10:03:34.956Z,1.20
2023-04-13T10:04:37.438Z,1.40
2023-04-13T10:05:55.116Z,1.30
2023-04-13T10:07:02.114Z,1.25
2023-04-13T10:08:05.535Z,1.50
2023-04-13T10:09:08.062Z,1.52
2023-04-13T10:10:11.429Z,1.20
2023-04-13T10:11:15.263Z,1.40
2023-04-13T10:12:17.994Z,1.50
2023-04-13T10:13:25.091Z,1.13
2023-04-13T10:14:34.555Z,1.20
2023-04-13T10:16:03.633Z,1.30
2023-04-13T10:17:36.163Z,1.50
2023-04-13T10:19:05.215Z,1.20
2023-04-13T10:20:13.798Z,1.20
2023-04-13T10:21:16.842Z,1.33
2023-04-13T10:22:20.835Z,1.20
2023-04-13T10:23:24.885Z,1.20
2023-04-13T10:24:28.962Z,1.20
2023-04-13T10:25:33.934Z,1.10
2023-04-13T10:26:37.371Z,0.90
2023-04-13T10:27:40.114Z,1.15
2023-04-13T10:28:48.026Z,1.00
2023-04-13T10:29:50.458Z,0.88
2023-04-13T10:30:53.372Z,1.25
2023-04-13T10:31:57.370Z,1.02
2023-04-13T10:33:09.770Z,1.63
2023-04-13T10:34:41.127Z,1.42
2023-04-13T10:35:55.106Z,1.50
2023-04-13T10:37:02.827Z,1.10
2023-04-13T10:38:05.362Z,1.40
2023-04-13T10:39:08.411Z,0.98
2023-04-13T10:40:13.980Z,0.95
2023-04-13T10:41:28.835Z,1.90
2023-04-13T10:42:51.329Z,1.33
2023-04-13T10:44:08.396Z,1.00
2023-04-13T10:45:18.894Z,1.27
2023-04-13T10:46:21.242Z,1.58
2023-04-13T10:47:26.623Z,1.95
2023-04-13T10:48:30.137Z,0.90
2023-04-13T10:49:32.995Z,1.13
2023-04-13T10:50:35.380Z,1.10
2023-04-13T10:51:42.424Z,1.10
2023-04-13T10:53:08.989Z,1.55
2023-04-13T10:54:13.451Z,1.20
2023-04-13T10:55:16.370Z,1.33
2023-04-13T10:56:19.540Z,1.08
2023-04-13T10:57:21.977Z,1.20
2023-04-13T10:58:24.456Z,1.13
2023-04-13T10:59:59.144Z,1.10
2023-04-13T11:01:03.393Z,1.30
2023-04-13T11:02:10.716Z,1.35
2023-04-13T11:03:17.240Z,1.10
2023-04-13T11:04:20.141Z,1.10
2023-04-13T11:05:22.850Z,0.80
2023-04-13T11:06:25.255Z,1.10
2023-04-13T11:07:28.634Z,1.30
2023-04-13T11:08:32.621Z,1.10
2023-04-13T11:09:35.065Z,1.50
2023-04-13T11:10:37.387Z,1.27
2023-04-13T11:11:41.864Z,1.25
2023-04-13T11:12:53.886Z,1.10
2023-04-13T11:13:56.650Z,1.77
2023-04-13T11:14:59.441Z,1.10
2023-04-13T11:16:05.699Z,0.90
2023-04-13T11:17:14.305Z,1.20
2023-04-13T11:18:28.089Z,1.23
2023-04-13T11:19:30.407Z,1.17
2023-04-13T11:20:34.608Z,1.30
2023-04-13T11:21:36.912Z,1.25
2023-04-13T11:22:39.629Z,1.30
2023-04-13T11:23:42.378Z,1.30
2023-04-13T11:24:46.048Z,1.45
2023-04-13T11:25:58.243Z,1.60
2023-04-13T11:27:01.337Z,1.92
2023-04-13T11:28:04.872Z,1.45
2023-04-13T11:29:18.408Z,1.20
2023-04-13T11:30:22.681Z,1.33
2023-04-13T11:31:39.041Z,1.40
2023-04-13T11:32:43.503Z,1.20
2023-04-13T11:33:49.079Z,1.40
2023-04-13T11:34:51.464Z,1.05
2023-04-13T11:35:55.664Z,1.17
2023-04-13T11:37:02.591Z,1.00
2023-04-13T11:38:04.903Z,1.10
2023-04-13T11:39:11.105Z,0.80
2023-04-13T11:40:17.474Z,1.10
2023-04-13T11:41:19.954Z,1.30
2023-04-13T11:42:22.356Z,1.17
2023-04-13T11:43:25.418Z,1.30
2023-04-13T11:44:27.777Z,1.00
2023-04-13T11:45:30.996Z,1.00
2023-04-13T11:46:33.653Z,1.05
2023-04-13T11:47:36.238Z,1.00
2023-04-13T11:48:38.620Z,1.00
2023-04-13T11:49:47.635Z,1.02
2023-04-13T11:50:50.698Z,0.90
2023-04-13T11:51:53.211Z,1.05
2023-04-13T11:52:56.960Z,1.25
2023-04-13T11:54:01.086Z,1.10
2023-04-13T11:55:19.048Z,1.10
2023-04-13T11:56:25.899Z,0.93
2023-04-13T11:57:29.138Z,0.70
2023-04-13T11:58:31.990Z,0.90
2023-04-13T11:59:34.279Z,1.00
2023-04-13T12:00:41.338Z,0.90
2023-04-13T12:01:55.150Z,1.00
2023-04-13T12:03:11.940Z,1.00
2023-04-13T12:04:25.412Z,1.10
2023-04-13T12:05:30.140Z,1.10
2023-04-13T12:06:35.056Z,1.20
2023-04-13T12:07:40.985Z,0.85
2023-04-13T12:08:43.965Z,1.10
2023-04-13T12:13:47.282Z,0.93
2023-04-13T12:15:13.888Z,0.75
2023-04-13T12:17:41.343Z,0.80
2023-04-13T12:18:48.175Z,0.70
2023-04-13T12:19:57.575Z,0.80
2023-04-13T12:21:03.767Z,2.90
2023-04-13T12:22:09.601Z,1.83
2023-04-13T12:23:24.305Z,2.13
2023-04-13T12:24:38.254Z,1.75
2023-04-13T12:25:42.168Z,1.60
2023-04-13T12:27:53.603Z,1.50
2023-04-13T12:28:59.409Z,1.20
2023-04-13T12:30:04.202Z,1.08
2023-04-13T12:31:08.890Z,1.15
2023-04-13T12:32:14.878Z,0.80
2023-04-13T12:33:17.854Z,0.80
2023-04-13T12:34:21.400Z,0.80
2023-04-13T12:35:23.760Z,1.13
2023-04-13T12:36:28.452Z,1.30
2023-04-13T12:37:30.670Z,1.40
2023-04-13T12:38:33.451Z,1.00
2023-04-13T12:39:35.895Z,1.27
2023-04-13T12:40:38.557Z,1.05
2023-04-13T12:41:40.988Z,0.90
2023-04-13T12:42:44.663Z,1.02
2023-04-13T12:43:47.207Z,0.95
2023-04-13T12:44:49.458Z,0.90
2023-04-13T12:45:53.240Z,0.80
2023-04-13T12:46:55.543Z,0.80
2023-04-13T12:47:57.838Z,0.82
2023-04-13T12:49:00.622Z,0.85
2023-04-13T12:50:08.183Z,0.68
2023-04-13T12:51:10.690Z,1.25
2023-04-13T12:52:13.000Z,1.45
2023-04-13T12:53:15.474Z,1.33
2023-04-13T12:54:18.112Z,1.30
2023-04-13T12:55:20.465Z,1.00
2023-04-13T12:56:24.595Z,1.25
2023-04-13T12:57:28.203Z,1.13
2023-04-13T12:58:30.781Z,1.17
2023-04-13T12:59:33.095Z,1.75
2023-04-13T13:00:35.494Z,1.40
2023-04-13T13:01:38.360Z,0.93
2023-04-13T13:02:40.940Z,0.90
2023-04-13T13:03:47.132Z,0.90
2023-04-13T13:04:52.518Z,0.90
2023-04-13T13:05:54.879Z,0.90
2023-04-13T13:06:57.133Z,0.88
2023-04-13T13:07:59.547Z,0.90
2023-04-13T13:09:02.044Z,0.90
2023-04-13T13:10:14.926Z,0.80
2023-04-13T13:11:28.706Z,0.90
2023-04-13T13:12:31.432Z,1.00
2023-04-13T13:13:33.825Z,1.30
2023-04-13T13:14:36.169Z,1.40
2023-04-13T13:15:38.535Z,0.98
2023-04-13T13:16:40.945Z,1.20
2023-04-13T13:17:43.621Z,1.30
2023-04-13T13:18:51.011Z,1.15
2023-04-13T13:19:54.709Z,0.80
2023-04-13T13:20:56.993Z,1.08
2023-04-13T13:22:01.774Z,1.40
2023-04-13T13:23:04.039Z,0.90
2023-04-13T13:24:07.031Z,0.80
2023-04-13T13:25:09.969Z,0.60
2023-04-13T13:28:23.010Z,5.63
2023-04-13T13:29:26.235Z,5.85
2023-04-13T13:30:28.508Z,4.45
2023-04-13T13:31:31.084Z,3.22
2023-04-13T13:32:33.949Z,2.70
2023-04-13T13:33:36.841Z,2.50
2023-04-13T13:34:40.250Z,1.90
2023-04-13T13:35:42.515Z,1.65
2023-04-13T13:36:44.887Z,1.60
2023-04-13T13:37:47.184Z,1.70
2023-04-13T13:38:49.535Z,1.40
2023-04-13T13:39:52.017Z,1.25
2023-04-13T13:40:54.248Z,1.30
2023-04-13T13:41:57.339Z,1.15
2023-04-13T13:42:59.747Z,1.33
2023-04-13T13:44:02.086Z,1.30
2023-04-13T13:45:05.165Z,1.33
2023-04-13T13:46:07.565Z,1.10
2023-04-13T13:47:12.883Z,0.90
2023-04-13T13:48:18.196Z,1.00
2023-04-13T13:49:33.132Z,0.88
2023-04-13T13:50:44.945Z,1.40
2023-04-13T13:51:49.241Z,0.98
2023-04-13T13:53:03.303Z,1.00
2023-04-13T13:54:10.250Z,1.73
2023-04-13T13:55:12.978Z,1.15
2023-04-13T13:56:15.356Z,1.65
2023-04-13T13:57:17.609Z,1.20
2023-04-13T13:58:20.101Z,1.13
2023-04-13T13:59:22.524Z,1.35
2023-04-13T14:00:25.924Z,1.02
2023-04-13T14:01:28.335Z,0.98
2023-04-13T14:02:30.812Z,1.20
2023-04-13T14:03:33.282Z,0.80
2023-04-13T14:04:36.666Z,0.80
2023-04-13T14:05:39.076Z,0.80
2023-04-13T14:06:41.798Z,0.98
2023-04-13T14:07:45.748Z,0.80
2023-04-13T14:08:48.128Z,0.95
2023-04-13T14:09:50.619Z,3.45
2023-04-13T14:10:53.067Z,3.00
2023-04-13T14:11:55.956Z,3.35
2023-04-13T14:12:59.755Z,3.60
2023-04-13T14:14:10.847Z,4.00
2023-04-13T14:15:17.589Z,4.20
2023-04-13T14:16:20.059Z,3.85
2023-04-13T14:17:22.403Z,3.80
2023-04-13T14:18:24.854Z,3.42
2023-04-13T14:19:27.243Z,3.25
2023-04-13T14:20:29.501Z,2.90
2023-04-13T14:21:32.161Z,2.38
2023-04-13T14:22:34.792Z,2.00
2023-04-13T14:23:38.234Z,1.98
2023-04-13T14:24:40.498Z,1.75
2023-04-13T14:25:42.791Z,1.45
2023-04-13T14:26:45.171Z,1.58
2023-04-13T14:27:47.421Z,1.60
2023-04-13T14:28:50.087Z,1.10
2023-04-13T14:29:52.455Z,1.23
2023-04-13T14:30:54.772Z,0.98
2023-04-13T14:31:57.185Z,0.90
2023-04-13T14:32:59.593Z,1.10
2023-04-13T14:34:02.004Z,1.23
2023-04-13T14:35:04.611Z,0.98
2023-04-13T14:36:07.176Z,0.82
2023-04-13T14:37:10.153Z,1.13
2023-04-13T14:38:12.519Z,0.80
2023-04-13T14:39:16.178Z,1.00
2023-04-13T14:40:22.043Z,0.80
2023-04-13T14:41:24.327Z,1.00
2023-04-13T14:42:29.675Z,0.95